Time;durP1;ratioP1;P1;durP2;ratioP2;P2;SDS_P1;SDS_P2;PMS_P1;PMS_P2;Temp;Humidity;BMP_temperature;BMP_pressure;BME280_temperature;BME280_humidity;BME280_pressure;Samples;Min_cycle;Max_cycle;Signal;HPM_P1;HPM_P2
2021/04/06 00:00:39;;;;;;;21.70;14.60;;;7.30;99.90;;;;;;4973605;28;20042;-83
2021/04/06 00:03:07;;;;;;;21.02;13.88;;;6.60;99.90;;;;;;4973490;28;20031;-88
2021/04/06 00:05:34;;;;;;;20.00;14.80;;;6.30;99.90;;;;;;4972314;28;20030;-86
2021/04/06 00:08:02;;;;;;;25.35;14.30;;;6.30;99.90;;;;;;4970983;28;20074;-79
2021/04/06 00:10:55;;;;;;;21.60;13.63;;;6.50;99.90;;;;;;4973117;28;20046;-81
2021/04/06 00:13:26;;;;;;;21.42;14.45;;;7.10;99.90;;;;;;4967893;28;20038;-80
2021/04/06 00:15:53;;;;;;;25.20;14.25;;;6.80;99.90;;;;;;4971572;28;20038;-79
2021/04/06 00:18:21;;;;;;;19.85;13.98;;;6.90;99.90;;;;;;4972880;28;20062;-78
2021/04/06 00:20:48;;;;;;;23.10;13.65;;;6.60;99.90;;;;;;4973577;28;20043;-86
2021/04/06 00:23:15;;;;;;;19.67;13.43;;;6.70;99.90;;;;;;4970712;28;20126;-79
2021/04/06 00:25:46;;;;;;;20.80;13.95;;;7.00;99.90;;;;;;4971539;28;20038;-80
2021/04/06 00:28:18;;;;;;;19.40;13.77;;;6.70;99.90;;;;;;4971712;28;20030;-79
2021/04/06 00:30:49;;;;;;;19.90;13.48;;;6.80;99.90;;;;;;4971762;28;20475;-84
2021/04/06 00:33:28;;;;;;;20.38;13.27;;;6.70;99.90;;;;;;4971457;28;20058;-80
2021/04/06 00:35:56;;;;;;;21.33;14.75;;;6.80;99.90;;;;;;4971697;28;20025;-79
2021/04/06 00:38:28;;;;;;;20.38;13.05;;;7.10;99.90;;;;;;4971379;28;20027;-79
2021/04/06 00:41:03;;;;;;;18.17;12.48;;;6.50;99.90;;;;;;4974947;28;20573;-80
2021/04/06 00:43:38;;;;;;;22.77;13.45;;;6.20;99.90;;;;;;4974612;28;20463;-80
2021/04/06 00:46:07;;;;;;;20.42;12.48;;;6.60;99.90;;;;;;4976301;28;20034;-82
2021/04/06 00:48:33;;;;;;;20.85;12.93;;;6.20;99.90;;;;;;4974571;28;20026;-84
2021/04/06 00:51:12;;;;;;;19.55;13.23;;;6.20;99.90;;;;;;4975338;28;20501;-81
2021/04/06 00:54:00;;;;;;;21.75;12.82;;;6.00;99.90;;;;;;4975386;28;20035;-82
2021/04/06 00:56:35;;;;;;;22.65;12.55;;;5.90;99.90;;;;;;4976028;28;20098;-82
2021/04/06 00:59:18;;;;;;;18.85;12.02;;;6.20;99.90;;;;;;4975647;28;20062;-80
2021/04/06 01:01:49;;;;;;;18.38;12.52;;;5.80;99.90;;;;;;4974794;28;20033;-82
2021/04/06 01:04:22;;;;;;;20.60;13.00;;;6.30;99.90;;;;;;4974951;28;20093;-81
2021/04/06 01:07:01;;;;;;;17.92;12.88;;;6.70;99.90;;;;;;4973890;28;20046;-80
2021/04/06 01:09:46;;;;;;;18.83;12.82;;;6.80;99.90;;;;;;4975177;28;20386;-80
2021/04/06 01:12:21;;;;;;;21.25;12.43;;;7.00;99.90;;;;;;4974411;28;20480;-79
2021/04/06 01:14:49;;;;;;;21.27;13.25;;;6.90;99.90;;;;;;4973819;28;20035;-81
2021/04/06 01:17:22;;;;;;;20.25;12.85;;;6.90;99.90;;;;;;4974275;28;20118;-80
2021/04/06 01:19:48;;;;;;;18.95;12.02;;;6.80;99.90;;;;;;4975277;28;20026;-78
2021/04/06 01:22:16;;;;;;;20.70;13.45;;;6.60;99.90;;;;;;4960489;28;20082;-83
2021/04/06 01:24:43;;;;;;;18.48;13.05;;;6.80;99.90;;;;;;4974968;28;20050;-81
2021/04/06 01:27:13;;;;;;;19.45;12.88;;;6.90;99.90;;;;;;4975046;28;20022;-77
2021/04/06 01:29:40;;;;;;;19.02;12.45;;;7.00;99.90;;;;;;4973292;28;20152;-80
2021/04/06 01:32:06;;;;;;;19.38;12.15;;;7.00;99.90;;;;;;4975649;28;20118;-80
2021/04/06 01:34:34;;;;;;;19.42;12.57;;;7.00;99.90;;;;;;4975209;28;20035;-77
2021/04/06 01:37:00;;;;;;;17.50;12.38;;;6.70;99.90;;;;;;4974472;28;20031;-81
2021/04/06 01:39:28;;;;;;;17.42;12.85;;;6.10;99.90;;;;;;4957172;28;20113;-80
2021/04/06 01:41:59;;;;;;;18.23;12.10;;;5.80;99.90;;;;;;4973123;28;20373;-78
2021/04/06 01:44:25;;;;;;;17.33;12.65;;;5.50;99.90;;;;;;4973666;28;20046;-80
2021/04/06 01:46:53;;;;;;;17.30;12.15;;;5.30;99.90;;;;;;4973790;28;20383;-80
2021/04/06 01:49:20;;;;;;;19.58;11.50;;;5.60;99.90;;;;;;4974727;28;20390;-79
2021/04/06 01:51:47;;;;;;;18.45;11.60;;;5.70;99.90;;;;;;4974010;28;20049;-82
2021/04/06 01:54:14;;;;;;;14.85;10.70;;;5.30;99.90;;;;;;4974370;28;20027;-81
2021/04/06 01:57:04;;;;;;;15.98;11.38;;;5.10;99.90;;;;;;4974529;28;20041;-83
2021/04/06 01:59:36;;;;;;;16.35;11.85;;;5.60;99.90;;;;;;4971198;28;20031;-80
2021/04/06 02:02:03;;;;;;;15.52;11.07;;;5.90;99.90;;;;;;4974175;28;20026;-83
2021/04/06 02:04:30;;;;;;;17.27;11.40;;;6.10;99.90;;;;;;4972743;28;20411;-81
2021/04/06 02:06:58;;;;;;;17.33;11.50;;;6.20;99.90;;;;;;4974016;28;20051;-83
2021/04/06 02:09:25;;;;;;;17.95;12.10;;;6.30;99.90;;;;;;4974127;28;20066;-81
2021/04/06 02:11:51;;;;;;;17.40;11.27;;;5.40;99.90;;;;;;4972307;28;20434;-82
2021/04/06 02:14:19;;;;;;;16.20;11.43;;;5.20;99.90;;;;;;4974141;28;20430;-81
2021/04/06 02:16:56;;;;;;;16.45;11.88;;;5.40;99.90;;;;;;4974085;28;20443;-81
2021/04/06 02:19:41;;;;;;;16.52;11.77;;;5.20;99.90;;;;;;4973966;28;20074;-84
2021/04/06 02:22:14;;;;;;;15.93;11.43;;;4.90;99.90;;;;;;4957610;28;20035;-82
2021/04/06 02:24:43;;;;;;;16.85;11.32;;;4.70;99.90;;;;;;4974062;28;20051;-81
2021/04/06 02:27:16;;;;;;;15.63;10.80;;;4.80;99.90;;;;;;4973574;28;20026;-82
2021/04/06 02:29:43;;;;;;;16.95;11.18;;;4.80;99.90;;;;;;4971043;28;20038;-82
2021/04/06 02:32:12;;;;;;;16.55;10.45;;;4.80;99.90;;;;;;4972594;28;20038;-83
2021/04/06 02:34:40;;;;;;;15.57;10.90;;;4.60;99.90;;;;;;4971490;28;20038;-83
2021/04/06 02:37:10;;;;;;;18.42;11.40;;;4.60;99.90;;;;;;4973837;28;20102;-81
2021/04/06 02:39:39;;;;;;;16.85;10.52;;;4.80;99.90;;;;;;4973481;28;20355;-79
2021/04/06 02:42:23;;;;;;;18.58;11.13;;;4.70;99.90;;;;;;4974107;28;20038;-84
2021/04/06 02:45:13;;;;;;;18.77;11.98;;;4.90;99.90;;;;;;4967712;28;20038;-83
2021/04/06 02:47:49;;;;;;;18.20;12.48;;;4.80;99.90;;;;;;4966641;28;20039;-79
2021/04/06 02:50:18;;;;;;;15.05;11.70;;;4.70;99.90;;;;;;4973503;28;20039;-84
2021/04/06 02:52:44;;;;;;;17.17;11.85;;;4.70;99.90;;;;;;4971956;28;20363;-84
2021/04/06 02:55:12;;;;;;;18.40;12.70;;;5.10;99.90;;;;;;4973744;28;20470;-83
2021/04/06 02:57:50;;;;;;;16.73;11.90;;;5.30;99.90;;;;;;4972869;28;20103;-82
2021/04/06 03:00:28;;;;;;;16.30;11.27;;;5.20;99.90;;;;;;4967676;28;20496;-81
2021/04/06 03:02:54;;;;;;;16.83;11.68;;;5.70;99.90;;;;;;4972071;28;20473;-82
2021/04/06 03:05:47;;;;;;;19.77;12.77;;;5.70;99.90;;;;;;4972467;28;20033;-81
2021/04/06 03:08:12;;;;;;;16.17;11.20;;;4.70;99.90;;;;;;4970271;28;20039;-82
2021/04/06 03:10:38;;;;;;;16.85;11.65;;;4.70;99.90;;;;;;4974007;28;20054;-79
2021/04/06 03:13:12;;;;;;;15.10;11.32;;;4.90;99.90;;;;;;4972627;28;20023;-83
2021/04/06 03:15:42;;;;;;;14.02;11.07;;;5.10;99.90;;;;;;4973509;28;20030;-81
2021/04/06 03:18:12;;;;;;;15.82;11.70;;;5.20;99.90;;;;;;4973673;28;20111;-81
2021/04/06 03:20:39;;;;;;;16.50;11.88;;;5.20;99.90;;;;;;4972773;28;20023;-83
2021/04/06 03:23:07;;;;;;;17.15;11.60;;;5.50;99.90;;;;;;4972733;28;20521;-80
2021/04/06 03:25:35;;;;;;;15.75;10.80;;;5.80;99.90;;;;;;4974011;28;20034;-80
2021/04/06 03:28:13;;;;;;;17.23;11.48;;;5.30;99.90;;;;;;4972937;28;20086;-82
2021/04/06 03:30:39;;;;;;;15.27;10.93;;;5.50;99.90;;;;;;4973543;28;20414;-79
2021/04/06 03:33:07;;;;;;;15.68;10.80;;;5.10;99.90;;;;;;4973045;28;20034;-82
2021/04/06 03:35:35;;;;;;;16.98;11.07;;;4.80;99.90;;;;;;4972889;28;20078;-83
2021/04/06 03:38:04;;;;;;;16.92;11.85;;;4.70;99.90;;;;;;4973515;28;20110;-83
2021/04/06 03:40:34;;;;;;;18.98;12.02;;;4.40;99.90;;;;;;4972662;28;20037;-82
2021/04/06 03:43:13;;;;;;;17.30;12.40;;;4.70;99.90;;;;;;4972388;28;20039;-82
2021/04/06 03:45:57;;;;;;;18.05;11.27;;;4.60;99.90;;;;;;4954021;28;20035;-82
2021/04/06 03:48:25;;;;;;;16.55;11.27;;;5.40;99.90;;;;;;4969724;28;20483;-83
2021/04/06 03:50:52;;;;;;;18.35;11.93;;;5.40;99.90;;;;;;4972152;28;20042;-81
2021/04/06 03:53:20;;;;;;;16.58;11.80;;;5.70;99.90;;;;;;4972976;28;20110;-82
2021/04/06 03:56:04;;;;;;;17.50;11.40;;;5.80;99.90;;;;;;4973514;28;20377;-84
2021/04/06 03:58:43;;;;;;;18.08;11.25;;;5.60;99.90;;;;;;4964775;28;20391;-81
2021/04/06 04:01:11;;;;;;;17.38;11.75;;;5.10;99.90;;;;;;4973364;28;20053;-82
2021/04/06 04:03:37;;;;;;;18.08;11.57;;;5.00;99.90;;;;;;4971866;28;20035;-81
2021/04/06 04:06:04;;;;;;;16.65;11.68;;;4.50;99.90;;;;;;4972195;28;20034;-84
2021/04/06 04:08:30;;;;;;;17.40;10.27;;;4.30;99.90;;;;;;4972929;28;20406;-80
2021/04/06 04:10:56;;;;;;;20.45;12.02;;;4.50;99.90;;;;;;4973634;28;20047;-81
2021/04/06 04:13:22;;;;;;;19.27;12.20;;;4.80;99.90;;;;;;4971845;28;20093;-83
2021/04/06 04:16:29;;;;;;;17.15;11.77;;;4.60;99.90;;;;;;4977887;28;20069;-82
2021/04/06 04:18:55;;;;;;;17.10;10.82;;;4.30;99.90;;;;;;4972579;28;20047;-81
2021/04/06 04:21:21;;;;;;;20.85;11.38;;;4.10;99.90;;;;;;4979526;28;20375;-81
2021/04/06 04:23:46;;;;;;;17.65;10.95;;;4.50;99.90;;;;;;4977617;28;20403;-81
2021/04/06 04:26:12;;;;;;;16.50;10.95;;;4.90;99.90;;;;;;4978694;28;20042;-81
2021/04/06 04:28:38;;;;;;;17.40;11.38;;;5.20;99.90;;;;;;4978177;28;20049;-81
2021/04/06 04:31:10;;;;;;;16.27;11.25;;;5.00;99.90;;;;;;4977019;28;20027;-79
2021/04/06 04:33:38;;;;;;;18.77;12.02;;;4.50;99.90;;;;;;4977160;28;20043;-84
2021/04/06 04:36:22;;;;;;;14.95;11.00;;;5.00;99.90;;;;;;4980209;28;20041;-81
2021/04/06 04:39:14;;;;;;;19.20;11.68;;;5.30;99.90;;;;;;4979073;28;20126;-82
2021/04/06 04:41:40;;;;;;;21.92;12.25;;;5.10;99.90;;;;;;4980239;28;20435;-81
2021/04/06 04:44:08;;;;;;;14.85;11.07;;;4.60;99.90;;;;;;4977600;28;20113;-83
2021/04/06 04:46:34;;;;;;;23.23;12.90;;;4.10;99.90;;;;;;4978279;28;20374;-81
2021/04/06 04:49:00;;;;;;;21.75;12.48;;;4.20;99.90;;;;;;4978305;28;20517;-81
2021/04/06 04:51:26;;;;;;;18.60;11.80;;;4.60;99.90;;;;;;4979650;28;20031;-83
2021/04/06 04:53:52;;;;;;;21.15;12.55;;;5.10;99.90;;;;;;4978630;28;20056;-79
2021/04/06 04:56:18;;;;;;;17.02;11.85;;;5.40;99.90;;;;;;4978963;28;20026;-83
2021/04/06 04:58:44;;;;;;;14.82;11.10;;;5.60;99.90;;;;;;4978640;28;20034;-83
2021/04/06 05:01:11;;;;;;;18.60;11.85;;;5.00;99.90;;;;;;4978543;28;20467;-84
2021/04/06 05:03:37;;;;;;;15.77;11.00;;;5.10;99.90;;;;;;4977343;28;20386;-81
2021/04/06 05:06:03;;;;;;;18.38;11.30;;;5.00;99.90;;;;;;4978701;28;20466;-88
2021/04/06 05:08:29;;;;;;;16.88;11.15;;;4.90;99.90;;;;;;4978405;28;20109;-86
2021/04/06 05:10:56;;;;;;;20.58;12.00;;;4.90;99.90;;;;;;4979633;28;20116;-79
2021/04/06 05:13:21;;;;;;;17.17;11.32;;;4.80;99.90;;;;;;4978283;28;20031;-86
2021/04/06 05:15:48;;;;;;;16.90;10.82;;;4.60;99.90;;;;;;4977979;28;20359;-82
2021/04/06 05:18:14;;;;;;;20.67;11.43;;;4.90;99.90;;;;;;4978639;28;20042;-79
2021/04/06 05:20:40;;;;;;;17.00;11.35;;;4.70;99.90;;;;;;4978141;28;20027;-82
2021/04/06 05:23:07;;;;;;;22.33;12.40;;;5.10;99.90;;;;;;4978466;28;20027;-82
2021/04/06 05:25:32;;;;;;;55.90;31.42;;;5.60;99.90;;;;;;4977191;28;20058;-83
2021/04/06 05:27:58;;;;;;;35.22;21.33;;;6.80;99.90;;;;;;4975604;28;20300;-84
2021/04/06 05:30:25;;;;;;;21.80;13.52;;;7.30;99.90;;;;;;4975046;28;20504;-85
2021/04/06 05:32:52;;;;;;;19.80;12.50;;;6.30;99.90;;;;;;4974157;28;20031;-85
2021/04/06 05:35:18;;;;;;;17.95;12.23;;;5.90;99.90;;;;;;4974316;28;20556;-78
2021/04/06 05:37:44;;;;;;;22.40;11.52;;;5.90;99.90;;;;;;4974016;28;20062;-80
2021/04/06 05:40:10;;;;;;;20.17;10.90;;;5.30;99.90;;;;;;4974802;28;20382;-81
2021/04/06 05:42:37;;;;;;;18.15;10.75;;;5.00;99.90;;;;;;4974877;28;20027;-82
2021/04/06 05:45:06;;;;;;;22.08;11.70;;;5.40;99.90;;;;;;4974954;28;20022;-81
2021/04/06 05:47:51;;;;;;;18.92;11.27;;;5.20;99.90;;;;;;4975031;28;20035;-79
2021/04/06 05:50:17;;;;;;;22.08;13.30;;;5.60;99.90;;;;;;4972950;28;20129;-82
2021/04/06 05:52:44;;;;;;;16.92;12.27;;;5.90;99.90;;;;;;4973976;28;20470;-82
2021/04/06 05:55:10;;;;;;;20.17;11.27;;;6.10;99.90;;;;;;4978603;28;20038;-83
2021/04/06 05:57:36;;;;;;;17.02;11.70;;;6.00;99.90;;;;;;4982566;28;20034;-79
2021/04/06 06:00:07;;;;;;;17.98;11.07;;;5.90;99.90;;;;;;4958204;28;20031;-79
2021/04/06 06:02:32;;;;;;;18.92;12.52;;;5.60;99.90;;;;;;4969504;28;20379;-81
2021/04/06 06:04:58;;;;;;;19.95;13.70;;;5.90;99.90;;;;;;4977101;28;20513;-86
2021/04/06 06:07:25;;;;;;;25.38;15.82;;;6.20;99.90;;;;;;4977014;28;20035;-84
2021/04/06 06:09:51;;;;;;;23.17;13.02;;;6.30;99.90;;;;;;4987888;28;20039;-86
2021/04/06 06:12:19;;;;;;;23.90;12.15;;;6.20;99.90;;;;;;4975060;28;20019;-83
2021/04/06 06:14:51;;;;;;;16.90;10.60;;;6.70;99.90;;;;;;4973914;28;20380;-82
2021/04/06 06:17:29;;;;;;;18.33;11.07;;;6.70;99.90;;;;;;4968943;28;20387;-82
2021/04/06 06:19:59;;;;;;;15.20;10.07;;;6.40;99.90;;;;;;4969698;28;20030;-83
2021/04/06 06:22:33;;;;;;;14.65;10.02;;;6.50;99.90;;;;;;4993998;28;20025;-82
2021/04/06 06:25:07;;;;;;;15.23;10.82;;;6.80;99.90;;;;;;4993597;28;20043;-82
2021/04/06 06:27:44;;;;;;;18.83;10.57;;;7.20;99.90;;;;;;4993753;28;20041;-84
2021/04/06 06:33:26;;;;;;;16.27;10.18;;;7.90;99.90;;;;;;4977851;28;20034;-80
2021/04/06 06:35:54;;;;;;;15.70;9.93;;;8.30;99.90;;;;;;4973904;28;20110;-81
2021/04/06 06:38:29;;;;;;;13.98;10.30;;;8.50;99.90;;;;;;4973899;28;20065;-80
2021/04/06 06:41:12;;;;;;;15.90;10.48;;;8.70;99.90;;;;;;4973553;28;20117;-84
2021/04/06 06:43:43;;;;;;;18.25;10.27;;;8.70;99.90;;;;;;4974170;28;20078;-80
2021/04/06 06:46:35;;;;;;;15.40;9.75;;;8.90;99.90;;;;;;4972272;28;20085;-81
2021/04/06 06:49:08;;;;;;;19.17;9.93;;;8.30;99.90;;;;;;4954857;29;20035;-84
2021/04/06 06:51:36;;;;;;;17.75;10.38;;;8.20;99.90;;;;;;4954633;29;20035;-82
2021/04/06 06:54:03;;;;;;;15.55;10.40;;;8.50;99.90;;;;;;4954700;29;20031;-85
2021/04/06 06:56:37;;;;;;;12.95;8.35;;;8.90;99.90;;;;;;4956445;28;20162;-82
2021/04/06 06:59:04;;;;;;;14.70;9.30;;;9.20;99.90;;;;;;4993446;28;20116;-85
2021/04/06 07:01:31;;;;;;;12.35;9.27;;;9.20;99.90;;;;;;4992933;28;20028;-87
2021/04/06 07:04:15;;;;;;;13.50;9.07;;;9.40;99.90;;;;;;4954840;29;20475;-81
2021/04/06 07:06:44;;;;;;;14.60;9.25;;;9.50;99.90;;;;;;4954545;29;20019;-85
2021/04/06 07:09:39;;;;;;;13.50;9.50;;;9.50;99.90;;;;;;4954032;29;20023;-81
2021/04/06 07:12:07;;;;;;;12.15;8.95;;;9.40;99.90;;;;;;4945411;28;20060;-81
2021/04/06 07:14:35;;;;;;;10.43;8.25;;;9.60;99.90;;;;;;4954186;29;20026;-84
2021/04/06 07:17:05;;;;;;;13.80;8.25;;;9.50;99.90;;;;;;4957042;28;20043;-82
2021/04/06 07:19:34;;;;;;;11.23;8.37;;;9.50;99.90;;;;;;4971815;28;20033;-82
2021/04/06 07:22:02;;;;;;;15.80;8.63;;;9.40;99.90;;;;;;4977003;28;20287;-85
2021/04/06 07:24:33;;;;;;;12.73;8.73;;;9.00;99.90;;;;;;4974541;28;20054;-85
2021/04/06 07:27:04;;;;;;;13.35;8.82;;;9.20;99.90;;;;;;4976916;28;20049;-82
2021/04/06 07:29:31;;;;;;;14.70;8.45;;;9.50;99.90;;;;;;4980704;28;20038;-80
2021/04/06 07:31:58;;;;;;;12.05;8.52;;;9.80;99.90;;;;;;4975816;28;20419;-84
2021/04/06 07:34:24;;;;;;;13.20;8.77;;;9.90;99.90;;;;;;4981276;28;20026;-83
2021/04/06 07:36:53;;;;;;;12.85;8.52;;;9.80;99.90;;;;;;4980613;28;20026;-82
2021/04/06 07:39:19;;;;;;;10.90;8.63;;;9.90;99.90;;;;;;4980683;28;20049;-80
2021/04/06 07:41:46;;;;;;;12.73;8.60;;;10.10;99.90;;;;;;4980063;28;20080;-81
2021/04/06 07:44:14;;;;;;;11.18;8.30;;;10.00;99.90;;;;;;4979919;28;20115;-81
2021/04/06 07:46:47;;;;;;;14.20;9.68;;;9.80;99.90;;;;;;4970128;28;20117;-82
2021/04/06 07:49:22;;;;;;;13.90;9.15;;;9.80;99.90;;;;;;4967925;28;20035;-81
2021/04/06 07:51:50;;;;;;;13.18;9.07;;;10.10;99.90;;;;;;4954662;28;20027;-83
2021/04/06 07:54:42;;;;;;;14.35;9.15;;;10.30;99.90;;;;;;4981913;28;20050;-81
2021/04/06 07:57:08;;;;;;;13.18;8.25;;;10.20;99.90;;;;;;4978527;28;20058;-80
2021/04/06 07:59:34;;;;;;;18.13;9.40;;;10.20;99.90;;;;;;4978444;28;20106;-83
2021/04/06 08:02:02;;;;;;;12.85;9.30;;;10.40;99.90;;;;;;4968441;28;20387;-82
2021/04/06 08:04:55;;;;;;;15.32;9.30;;;10.50;99.90;;;;;;4968323;28;20068;-82
2021/04/06 08:07:24;;;;;;;12.80;8.88;;;10.60;99.90;;;;;;4977578;28;20495;-83
2021/04/06 08:09:51;;;;;;;17.23;9.63;;;10.70;99.90;;;;;;4977424;28;20043;-86
2021/04/06 08:12:33;;;;;;;11.80;8.88;;;11.00;99.90;;;;;;4979350;28;20023;-80
2021/04/06 08:15:15;;;;;;;12.65;8.90;;;11.10;99.90;;;;;;4972757;28;20023;-82
2021/04/06 08:17:47;;;;;;;11.60;8.57;;;11.30;99.90;;;;;;4962720;28;20043;-81
2021/04/06 08:20:32;;;;;;;15.73;9.02;;;11.30;99.90;;;;;;4953186;29;20090;-80
2021/04/06 08:23:14;;;;;;;14.90;8.35;;;11.60;99.90;;;;;;4953252;29;20027;-84
2021/04/06 08:25:42;;;;;;;10.85;8.45;;;11.70;99.90;;;;;;4953146;29;20055;-79
2021/04/06 08:28:28;;;;;;;13.98;8.93;;;11.50;99.90;;;;;;4952841;29;20031;-80
2021/04/06 08:31:13;;;;;;;13.40;8.82;;;11.60;99.90;;;;;;4952770;29;20061;-80
2021/04/06 08:33:39;;;;;;;13.30;8.07;;;12.00;99.90;;;;;;4952849;28;20035;-78
2021/04/06 08:36:05;;;;;;;9.80;7.97;;;12.40;99.90;;;;;;4952821;29;20034;-81
2021/04/06 08:38:33;;;;;;;12.32;8.65;;;12.60;99.90;;;;;;4952515;29;20027;-82
2021/04/06 08:41:08;;;;;;;13.80;8.50;;;12.60;99.90;;;;;;4951369;29;20387;-81
2021/04/06 08:43:41;;;;;;;14.50;10.10;;;12.50;99.90;;;;;;4951400;29;20023;-80
2021/04/06 08:46:11;;;;;;;17.30;9.85;;;12.20;99.90;;;;;;4952870;29;20023;-79
2021/04/06 08:48:49;;;;;;;15.30;10.73;;;12.50;99.90;;;;;;4952558;28;20113;-77
2021/04/06 08:51:21;;;;;;;13.43;8.85;;;12.90;99.90;;;;;;4952871;29;20035;-82
2021/04/06 08:53:52;;;;;;;16.65;9.85;;;13.00;99.90;;;;;;4952699;29;20105;-80
2021/04/06 08:56:24;;;;;;;15.88;9.52;;;12.50;99.90;;;;;;4952980;29;20515;-82
2021/04/06 08:58:50;;;;;;;18.38;9.80;;;12.70;99.90;;;;;;4957732;28;20538;-81
2021/04/06 09:01:19;;;;;;;13.90;8.77;;;13.00;99.90;;;;;;4991282;28;20076;-82
2021/04/06 09:03:45;;;;;;;18.70;9.82;;;13.10;99.90;;;;;;4959113;28;20058;-78
2021/04/06 09:06:12;;;;;;;14.10;10.07;;;13.50;99.90;;;;;;4966627;28;20380;-83
2021/04/06 09:08:59;;;;;;;11.60;8.23;;;13.40;99.90;;;;;;4979119;28;20152;-81
2021/04/06 09:11:25;;;;;;;13.02;8.27;;;13.30;99.90;;;;;;4979754;28;20069;-85
2021/04/06 09:13:53;;;;;;;11.82;8.73;;;13.80;99.90;;;;;;4983802;28;20105;-81
2021/04/06 09:16:27;;;;;;;11.00;8.23;;;14.20;99.90;;;;;;4978570;28;20033;-81
2021/04/06 09:18:58;;;;;;;10.45;7.70;;;13.80;99.90;;;;;;4982569;28;20054;-81
2021/04/06 09:21:25;;;;;;;10.07;7.70;;;13.30;99.90;;;;;;4983007;28;20797;-83
2021/04/06 09:23:56;;;;;;;12.48;8.00;;;13.20;99.90;;;;;;4983592;28;20469;-82
2021/04/06 09:26:22;;;;;;;12.73;7.63;;;13.50;99.90;;;;;;4985026;28;20027;-82
2021/04/06 09:28:59;;;;;;;11.55;7.55;;;13.60;99.90;;;;;;4982821;28;20082;-81
2021/04/06 09:31:26;;;;;;;12.48;8.18;;;13.40;99.90;;;;;;4980281;28;20033;-80
2021/04/06 09:34:10;;;;;;;14.23;7.03;;;13.70;99.90;;;;;;4983153;28;20069;-80
2021/04/06 09:36:37;;;;;;;11.32;7.28;;;13.80;99.90;;;;;;4983023;28;20030;-81
2021/04/06 09:39:05;;;;;;;13.23;7.45;;;14.00;99.90;;;;;;4982070;28;20037;-82
2021/04/06 09:41:37;;;;;;;11.57;7.18;;;14.00;99.90;;;;;;4983484;28;20019;-81
2021/04/06 09:44:09;;;;;;;12.23;8.20;;;14.70;99.90;;;;;;4981876;28;20041;-81
2021/04/06 09:46:39;;;;;;;13.02;7.90;;;14.70;99.90;;;;;;4982311;28;20018;-82
2021/04/06 09:49:06;;;;;;;12.57;7.32;;;14.40;99.90;;;;;;4976954;28;20112;-79
2021/04/06 09:51:33;;;;;;;11.13;7.70;;;14.60;99.80;;;;;;4964836;28;20203;-79
2021/04/06 09:54:00;;;;;;;11.73;6.68;;;15.10;99.50;;;;;;4956811;28;20035;-82
2021/04/06 09:56:26;;;;;;;10.68;7.65;;;15.40;98.40;;;;;;4971800;28;20031;-82
2021/04/06 09:58:53;;;;;;;10.13;6.85;;;15.60;98.80;;;;;;4994341;28;20026;-82
2021/04/06 10:01:27;;;;;;;13.35;8.00;;;15.20;97.30;;;;;;4993818;28;20489;-80
2021/04/06 10:03:55;;;;;;;14.13;8.07;;;15.70;97.50;;;;;;4974339;28;20545;-83
2021/04/06 10:06:32;;;;;;;12.32;7.78;;;15.70;97.80;;;;;;4974687;28;20477;-82
2021/04/06 10:08:59;;;;;;;10.90;7.40;;;16.00;96.70;;;;;;4974213;28;20023;-81
2021/04/06 10:11:27;;;;;;;10.68;6.97;;;15.80;95.30;;;;;;4976645;28;20039;-83
2021/04/06 10:13:54;;;;;;;12.48;7.22;;;16.10;95.30;;;;;;4979559;28;20015;-81
2021/04/06 10:16:20;;;;;;;13.93;7.10;;;16.00;93.60;;;;;;4981972;28;20027;-84
2021/04/06 10:18:51;;;;;;;12.07;7.22;;;15.50;94.50;;;;;;4980726;28;20026;-84
2021/04/06 10:21:20;;;;;;;15.00;7.55;;;15.30;95.40;;;;;;4983230;28;20031;-83
2021/04/06 10:23:46;;;;;;;13.00;7.28;;;15.40;96.10;;;;;;4981328;28;20043;-84
2021/04/06 10:26:23;;;;;;;12.27;7.07;;;15.90;95.20;;;;;;4983452;28;20026;-80
2021/04/06 10:29:10;;;;;;;13.45;7.38;;;16.30;94.80;;;;;;4979287;28;20393;-84
2021/04/06 10:31:53;;;;;;;10.70;6.75;;;16.70;93.50;;;;;;4980936;28;20027;-84
2021/04/06 10:34:19;;;;;;;9.90;6.78;;;16.90;91.70;;;;;;4982375;28;20034;-80
2021/04/06 10:37:00;;;;;;;15.23;7.35;;;16.60;93.20;;;;;;4978759;28;20104;-80
2021/04/06 10:39:35;;;;;;;11.73;7.28;;;16.70;92.40;;;;;;4984495;28;20094;-80
2021/04/06 10:42:02;;;;;;;10.18;7.40;;;16.70;91.30;;;;;;4980709;28;20030;-83
2021/04/06 10:44:29;;;;;;;10.95;7.18;;;17.30;92.20;;;;;;4978744;28;20019;-84
2021/04/06 10:46:55;;;;;;;12.45;7.10;;;16.90;89.60;;;;;;4959848;28;20023;-80
2021/04/06 10:49:21;;;;;;;11.63;7.72;;;17.00;90.70;;;;;;4964622;28;20030;-82
2021/04/06 10:51:55;;;;;;;10.77;7.60;;;16.80;90.40;;;;;;4973730;28;20030;-84
2021/04/06 10:54:21;;;;;;;9.77;7.57;;;17.00;89.60;;;;;;4973350;28;20057;-83
2021/04/06 10:56:54;;;;;;;9.23;6.80;;;17.60;89.70;;;;;;4973781;28;20085;-81
2021/04/06 10:59:27;;;;;;;14.27;7.13;;;18.00;86.40;;;;;;4969983;28;20023;-79
2021/04/06 11:01:54;;;;;;;9.50;6.32;;;17.60;82.20;;;;;;4972429;28;20030;-82
2021/04/06 11:04:22;;;;;;;9.35;6.88;;;17.70;83.90;;;;;;4974170;28;20027;-80
2021/04/06 11:06:56;;;;;;;14.70;7.20;;;16.70;88.00;;;;;;4952129;29;20035;-84
2021/04/06 11:09:27;;;;;;;10.98;6.85;;;17.00;87.40;;;;;;4952555;29;20080;-85
2021/04/06 11:11:56;;;;;;;12.15;6.57;;;16.90;87.20;;;;;;4954560;29;20031;-86
2021/04/06 11:14:26;;;;;;;10.02;6.05;;;17.60;89.90;;;;;;4953923;29;20023;-81
2021/04/06 11:16:54;;;;;;;12.57;6.80;;;17.90;82.60;;;;;;4963536;28;20067;-79
2021/04/06 11:19:25;;;;;;;10.65;6.32;;;17.80;79.10;;;;;;4971113;28;20038;-80
2021/04/06 11:21:56;;;;;;;10.43;5.68;;;18.00;76.10;;;;;;4971979;28;20035;-80
2021/04/06 11:24:24;;;;;;;7.95;5.78;;;18.50;76.00;;;;;;4978916;28;20501;-81
2021/04/06 11:26:51;;;;;;;11.05;6.47;;;19.10;73.90;;;;;;4980712;28;20434;-83
2021/04/06 11:29:21;;;;;;;10.07;6.25;;;18.70;71.60;;;;;;4984391;28;20395;-81
2021/04/06 11:31:49;;;;;;;11.93;6.43;;;18.30;71.60;;;;;;4982689;28;20033;-86
2021/04/06 11:34:16;;;;;;;9.73;5.57;;;19.30;77.30;;;;;;4974556;28;20109;-81
2021/04/06 11:36:44;;;;;;;9.82;6.05;;;19.60;69.20;;;;;;4973627;28;20110;-80
2021/04/06 11:39:11;;;;;;;9.02;5.38;;;19.80;69.00;;;;;;4976726;28;20134;-80
2021/04/06 11:41:38;;;;;;;11.32;6.50;;;19.30;66.70;;;;;;4971483;28;20541;-85
2021/04/06 11:44:04;;;;;;;7.82;5.32;;;20.00;65.40;;;;;;4971590;28;20035;-81
2021/04/06 11:46:35;;;;;;;10.38;6.32;;;20.20;64.50;;;;;;4973048;28;20074;-82
2021/04/06 11:49:01;;;;;;;11.80;6.30;;;20.20;64.10;;;;;;4973066;28;20059;-83
2021/04/06 11:51:30;;;;;;;11.90;6.03;;;20.60;62.00;;;;;;4966365;28;20047;-81
2021/04/06 11:53:58;;;;;;;10.38;5.40;;;20.70;60.20;;;;;;4973052;28;20023;-80
2021/04/06 11:56:27;;;;;;;9.57;5.38;;;20.40;60.10;;;;;;4971351;28;20034;-81
2021/04/06 11:59:06;;;;;;;9.50;5.78;;;20.50;60.50;;;;;;4973025;28;20018;-79
2021/04/06 12:01:43;;;;;;;9.05;5.43;;;20.70;60.40;;;;;;4971797;28;20115;-82
2021/04/06 12:04:12;;;;;;;8.55;5.40;;;20.50;62.00;;;;;;4949791;29;20035;-80
2021/04/06 12:06:38;;;;;;;12.02;5.65;;;20.40;59.50;;;;;;4950864;29;20070;-82
2021/04/06 12:09:06;;;;;;;11.57;5.38;;;20.20;59.70;;;;;;4950421;29;20051;-81
2021/04/06 12:11:32;;;;;;;10.18;5.43;;;19.90;58.90;;;;;;4950711;29;20474;-83
2021/04/06 12:13:58;;;;;;;11.20;5.57;;;20.00;59.00;;;;;;4934741;29;20027;-82
2021/04/06 12:16:24;;;;;;;10.40;5.05;;;20.00;58.40;;;;;;4946038;29;20036;-81
2021/04/06 12:18:49;;;;;;;7.90;4.78;;;20.40;58.90;;;;;;4947270;29;20031;-81
2021/04/06 12:21:26;;;;;;;11.55;5.20;;;20.40;57.50;;;;;;4950962;29;20032;-80
2021/04/06 12:24:17;;;;;;;12.60;5.57;;;19.90;58.40;;;;;;4935242;29;20074;-81
2021/04/06 12:26:42;;;;;;;9.40;4.85;;;19.90;58.40;;;;;;4950440;29;20421;-81
2021/04/06 12:29:08;;;;;;;9.40;4.75;;;19.40;56.50;;;;;;4950690;29;20565;-81
2021/04/06 12:31:34;;;;;;;10.40;5.13;;;19.40;56.90;;;;;;4950772;29;20051;-81
2021/04/06 12:34:00;;;;;;;8.02;4.38;;;19.70;57.10;;;;;;4950277;28;20035;-80
2021/04/06 12:36:28;;;;;;;7.65;4.10;;;20.50;55.20;;;;;;4953068;28;20118;-81
2021/04/06 12:38:53;;;;;;;6.20;3.25;;;20.70;52.00;;;;;;4954448;29;20042;-82
2021/04/06 12:41:19;;;;;;;10.00;4.28;;;20.60;51.70;;;;;;4938447;29;20043;-82
2021/04/06 12:43:45;;;;;;;8.75;4.53;;;20.30;51.30;;;;;;4956785;29;20084;-86
2021/04/06 12:46:13;;;;;;;10.57;3.90;;;20.40;52.20;;;;;;4939476;29;20034;-80
2021/04/06 12:48:39;;;;;;;8.63;3.97;;;20.30;53.20;;;;;;4957226;28;20642;-81
2021/04/06 12:51:05;;;;;;;10.77;3.88;;;20.00;53.80;;;;;;4956150;29;20558;-80
2021/04/06 12:53:31;;;;;;;8.27;3.78;;;20.40;52.10;;;;;;4939115;29;20023;-80
2021/04/06 12:55:56;;;;;;;7.55;4.10;;;20.50;54.20;;;;;;4955384;29;20030;-83
2021/04/06 12:58:23;;;;;;;11.57;3.95;;;20.30;54.40;;;;;;4938986;29;20031;-83